Weather at Adelaide International Airport

Public forecast

Using degrees Celsius for public forecast. Weather courtesy of forecast.io.

Current aviation weather report (METAR) for Adelaide International Airport

2024/06/22 06:30 (retrieved 34 minutes ago)

YPAD 220630Z 25007KT 9999 SCT044 13/08 Q1028

Aviation forecast (TAF) for Adelaide International Airport

2024/06/22 06:09 Ammendment (retrieved 55 minutes ago)

AMD YPAD 220505Z 2206/2312 26008KT 9999 SCT035 FM220900 12005KT 9999 SCT040 FM221200 04006KT CAVOK FM230100 35014KT CAVOK FM230300 32015G26KT CAVOK FM230900 30014KT CAVOK